sensor_id;sensor_type;location;lat;lon;timestamp;P1;durP1;ratioP1;P2;durP2;ratioP2
4166;SDS011;2097;51.104;7.150;2022-09-09T00:01:49;61.67;;;3.90;;
4166;SDS011;2097;51.104;7.150;2022-09-09T00:04:23;61.20;;;3.50;;
4166;SDS011;2097;51.104;7.150;2022-09-09T00:07:00;61.50;;;3.70;;
4166;SDS011;2097;51.104;7.150;2022-09-09T00:09:32;61.37;;;3.63;;
4166;SDS011;2097;51.104;7.150;2022-09-09T00:12:06;61.77;;;3.60;;
4166;SDS011;2097;51.104;7.150;2022-09-09T00:14:39;61.37;;;3.30;;
4166;SDS011;2097;51.104;7.150;2022-09-09T00:17:16;61.57;;;3.53;;
4166;SDS011;2097;51.104;7.150;2022-09-09T00:19:51;61.30;;;3.43;;
4166;SDS011;2097;51.104;7.150;2022-09-09T00:22:24;61.67;;;3.40;;
4166;SDS011;2097;51.104;7.150;2022-09-09T00:24:54;61.47;;;3.90;;
4166;SDS011;2097;51.104;7.150;2022-09-09T00:27:24;61.47;;;3.70;;
4166;SDS011;2097;51.104;7.150;2022-09-09T00:29:54;61.63;;;3.73;;
4166;SDS011;2097;51.104;7.150;2022-09-09T00:32:27;61.60;;;3.90;;
4166;SDS011;2097;51.104;7.150;2022-09-09T00:34:56;61.20;;;2.97;;
4166;SDS011;2097;51.104;7.150;2022-09-09T00:37:31;61.40;;;3.63;;
4166;SDS011;2097;51.104;7.150;2022-09-09T00:40:01;61.63;;;3.80;;
4166;SDS011;2097;51.104;7.150;2022-09-09T00:42:36;61.53;;;3.90;;
4166;SDS011;2097;51.104;7.150;2022-09-09T00:45:11;62.10;;;3.90;;
4166;SDS011;2097;51.104;7.150;2022-09-09T00:47:51;61.87;;;3.87;;
4166;SDS011;2097;51.104;7.150;2022-09-09T00:50:25;61.67;;;3.97;;
4166;SDS011;2097;51.104;7.150;2022-09-09T00:53:05;61.70;;;3.93;;
4166;SDS011;2097;51.104;7.150;2022-09-09T00:55:45;61.40;;;3.90;;
4166;SDS011;2097;51.104;7.150;2022-09-09T00:58:15;61.67;;;3.93;;
4166;SDS011;2097;51.104;7.150;2022-09-09T01:00:43;61.67;;;3.80;;
4166;SDS011;2097;51.104;7.150;2022-09-09T01:03:16;62.03;;;4.03;;
4166;SDS011;2097;51.104;7.150;2022-09-09T01:05:52;61.77;;;4.20;;
4166;SDS011;2097;51.104;7.150;2022-09-09T01:08:33;61.40;;;3.60;;
4166;SDS011;2097;51.104;7.150;2022-09-09T01:11:10;61.80;;;3.93;;
4166;SDS011;2097;51.104;7.150;2022-09-09T01:13:45;61.60;;;3.80;;
4166;SDS011;2097;51.104;7.150;2022-09-09T01:16:16;61.83;;;4.00;;
4166;SDS011;2097;51.104;7.150;2022-09-09T01:18:44;61.97;;;4.10;;
4166;SDS011;2097;51.104;7.150;2022-09-09T01:21:16;61.77;;;4.20;;
4166;SDS011;2097;51.104;7.150;2022-09-09T01:24:03;61.67;;;4.23;;
4166;SDS011;2097;51.104;7.150;2022-09-09T01:26:42;61.90;;;4.17;;
4166;SDS011;2097;51.104;7.150;2022-09-09T01:29:11;61.67;;;3.87;;
4166;SDS011;2097;51.104;7.150;2022-09-09T01:31:40;61.87;;;4.20;;
4166;SDS011;2097;51.104;7.150;2022-09-09T01:34:09;61.63;;;4.03;;
4166;SDS011;2097;51.104;7.150;2022-09-09T01:36:38;61.50;;;3.80;;
4166;SDS011;2097;51.104;7.150;2022-09-09T01:39:09;61.67;;;3.53;;
4166;SDS011;2097;51.104;7.150;2022-09-09T01:41:37;62.10;;;4.03;;
4166;SDS011;2097;51.104;7.150;2022-09-09T01:44:06;62.20;;;3.97;;
4166;SDS011;2097;51.104;7.150;2022-09-09T01:46:34;62.03;;;4.07;;
4166;SDS011;2097;51.104;7.150;2022-09-09T01:49:02;61.93;;;4.30;;
4166;SDS011;2097;51.104;7.150;2022-09-09T01:51:31;61.67;;;3.50;;
4166;SDS011;2097;51.104;7.150;2022-09-09T01:53:58;61.90;;;3.80;;
4166;SDS011;2097;51.104;7.150;2022-09-09T01:56:28;61.90;;;3.87;;
4166;SDS011;2097;51.104;7.150;2022-09-09T01:59:09;61.57;;;3.80;;
4166;SDS011;2097;51.104;7.150;2022-09-09T02:01:53;61.67;;;3.73;;
4166;SDS011;2097;51.104;7.150;2022-09-09T02:04:34;62.27;;;4.03;;
4166;SDS011;2097;51.104;7.150;2022-09-09T02:07:03;61.87;;;4.27;;
4166;SDS011;2097;51.104;7.150;2022-09-09T02:09:39;61.97;;;4.33;;
4166;SDS011;2097;51.104;7.150;2022-09-09T02:12:12;62.07;;;4.43;;
4166;SDS011;2097;51.104;7.150;2022-09-09T02:14:47;62.17;;;4.20;;
4166;SDS011;2097;51.104;7.150;2022-09-09T02:17:19;61.90;;;4.43;;
4166;SDS011;2097;51.104;7.150;2022-09-09T02:19:51;62.00;;;4.00;;
4166;SDS011;2097;51.104;7.150;2022-09-09T02:22:22;62.30;;;4.57;;
4166;SDS011;2097;51.104;7.150;2022-09-09T02:24:53;62.07;;;4.43;;
4166;SDS011;2097;51.104;7.150;2022-09-09T02:27:24;62.27;;;4.70;;
4166;SDS011;2097;51.104;7.150;2022-09-09T02:29:53;62.10;;;4.50;;
4166;SDS011;2097;51.104;7.150;2022-09-09T02:32:22;62.53;;;5.10;;
4166;SDS011;2097;51.104;7.150;2022-09-09T02:34:51;61.97;;;4.27;;
4166;SDS011;2097;51.104;7.150;2022-09-09T02:37:23;61.90;;;4.27;;
4166;SDS011;2097;51.104;7.150;2022-09-09T02:39:54;61.60;;;4.13;;
4166;SDS011;2097;51.104;7.150;2022-09-09T02:42:21;62.00;;;3.77;;
4166;SDS011;2097;51.104;7.150;2022-09-09T02:44:48;61.67;;;3.77;;
4166;SDS011;2097;51.104;7.150;2022-09-09T02:47:26;61.77;;;4.00;;
4166;SDS011;2097;51.104;7.150;2022-09-09T02:50:00;61.60;;;3.90;;
4166;SDS011;2097;51.104;7.150;2022-09-09T02:52:35;61.87;;;4.03;;
4166;SDS011;2097;51.104;7.150;2022-09-09T02:55:14;61.60;;;3.50;;
4166;SDS011;2097;51.104;7.150;2022-09-09T02:57:48;61.67;;;3.57;;
4166;SDS011;2097;51.104;7.150;2022-09-09T03:00:16;61.53;;;3.50;;
4166;SDS011;2097;51.104;7.150;2022-09-09T03:02:51;61.87;;;3.80;;
4166;SDS011;2097;51.104;7.150;2022-09-09T03:05:18;61.77;;;3.60;;
4166;SDS011;2097;51.104;7.150;2022-09-09T03:07:45;61.87;;;3.60;;
4166;SDS011;2097;51.104;7.150;2022-09-09T03:10:12;61.87;;;3.73;;
4166;SDS011;2097;51.104;7.150;2022-09-09T03:12:39;62.23;;;4.07;;
4166;SDS011;2097;51.104;7.150;2022-09-09T03:15:06;61.77;;;3.93;;
4166;SDS011;2097;51.104;7.150;2022-09-09T03:17:35;61.67;;;3.80;;
4166;SDS011;2097;51.104;7.150;2022-09-09T03:20:03;61.30;;;3.73;;
4166;SDS011;2097;51.104;7.150;2022-09-09T03:22:30;62.23;;;4.03;;
4166;SDS011;2097;51.104;7.150;2022-09-09T03:24:57;62.20;;;4.10;;
4166;SDS011;2097;51.104;7.150;2022-09-09T03:27:24;61.50;;;3.70;;
4166;SDS011;2097;51.104;7.150;2022-09-09T03:29:50;61.97;;;3.97;;
4166;SDS011;2097;51.104;7.150;2022-09-09T03:32:17;61.70;;;4.03;;
4166;SDS011;2097;51.104;7.150;2022-09-09T03:34:47;61.33;;;3.30;;
4166;SDS011;2097;51.104;7.150;2022-09-09T03:37:16;66.30;;;3.80;;
4166;SDS011;2097;51.104;7.150;2022-09-09T03:39:43;61.37;;;3.40;;
4166;SDS011;2097;51.104;7.150;2022-09-09T03:42:12;61.67;;;3.67;;
4166;SDS011;2097;51.104;7.150;2022-09-09T03:44:43;61.40;;;3.57;;
4166;SDS011;2097;51.104;7.150;2022-09-09T03:47:13;61.90;;;4.07;;
4166;SDS011;2097;51.104;7.150;2022-09-09T03:49:40;62.30;;;4.27;;
4166;SDS011;2097;51.104;7.150;2022-09-09T03:52:08;61.70;;;3.87;;
4166;SDS011;2097;51.104;7.150;2022-09-09T03:54:36;61.47;;;3.70;;
4166;SDS011;2097;51.104;7.150;2022-09-09T03:57:03;61.37;;;3.53;;
4166;SDS011;2097;51.104;7.150;2022-09-09T03:59:30;62.03;;;4.13;;
4166;SDS011;2097;51.104;7.150;2022-09-09T04:01:57;61.57;;;3.80;;
4166;SDS011;2097;51.104;7.150;2022-09-09T04:04:24;61.90;;;3.97;;
4166;SDS011;2097;51.104;7.150;2022-09-09T04:06:51;61.97;;;4.07;;
4166;SDS011;2097;51.104;7.150;2022-09-09T04:09:18;61.80;;;3.83;;
4166;SDS011;2097;51.104;7.150;2022-09-09T04:11:49;61.60;;;3.87;;
4166;SDS011;2097;51.104;7.150;2022-09-09T04:14:16;61.67;;;4.10;;
4166;SDS011;2097;51.104;7.150;2022-09-09T04:16:43;61.60;;;3.83;;
4166;SDS011;2097;51.104;7.150;2022-09-09T04:19:10;61.97;;;3.93;;
4166;SDS011;2097;51.104;7.150;2022-09-09T04:21:38;62.37;;;3.87;;
4166;SDS011;2097;51.104;7.150;2022-09-09T04:24:06;62.10;;;3.87;;
4166;SDS011;2097;51.104;7.150;2022-09-09T04:31:51;61.97;;;3.90;;
4166;SDS011;2097;51.104;7.150;2022-09-09T04:34:18;61.60;;;3.63;;
4166;SDS011;2097;51.104;7.150;2022-09-09T04:36:45;61.57;;;3.70;;
4166;SDS011;2097;51.104;7.150;2022-09-09T04:39:11;61.50;;;3.67;;
4166;SDS011;2097;51.104;7.150;2022-09-09T04:41:38;61.30;;;3.60;;
4166;SDS011;2097;51.104;7.150;2022-09-09T04:44:05;61.97;;;3.90;;
4166;SDS011;2097;51.104;7.150;2022-09-09T04:46:32;61.40;;;3.47;;
4166;SDS011;2097;51.104;7.150;2022-09-09T04:49:00;61.60;;;3.77;;
4166;SDS011;2097;51.104;7.150;2022-09-09T04:51:27;61.80;;;3.93;;
4166;SDS011;2097;51.104;7.150;2022-09-09T04:53:56;61.20;;;3.80;;
4166;SDS011;2097;51.104;7.150;2022-09-09T04:56:23;62.00;;;3.87;;
4166;SDS011;2097;51.104;7.150;2022-09-09T04:58:51;61.70;;;3.77;;
4166;SDS011;2097;51.104;7.150;2022-09-09T05:01:20;61.67;;;4.20;;
4166;SDS011;2097;51.104;7.150;2022-09-09T05:03:49;62.40;;;4.27;;
4166;SDS011;2097;51.104;7.150;2022-09-09T05:06:19;61.80;;;3.70;;
4166;SDS011;2097;51.104;7.150;2022-09-09T05:08:46;61.90;;;4.40;;
4166;SDS011;2097;51.104;7.150;2022-09-09T05:11:18;61.80;;;4.20;;
4166;SDS011;2097;51.104;7.150;2022-09-09T05:13:47;61.80;;;3.97;;
4166;SDS011;2097;51.104;7.150;2022-09-09T05:16:15;61.67;;;3.70;;
4166;SDS011;2097;51.104;7.150;2022-09-09T05:18:42;61.50;;;3.83;;
4166;SDS011;2097;51.104;7.150;2022-09-09T05:21:11;61.57;;;3.87;;
4166;SDS011;2097;51.104;7.150;2022-09-09T05:23:40;61.50;;;3.77;;
4166;SDS011;2097;51.104;7.150;2022-09-09T05:26:09;61.77;;;3.77;;
4166;SDS011;2097;51.104;7.150;2022-09-09T05:28:39;61.57;;;4.10;;
4166;SDS011;2097;51.104;7.150;2022-09-09T05:31:06;61.70;;;3.80;;
4166;SDS011;2097;51.104;7.150;2022-09-09T05:33:34;61.73;;;4.17;;
4166;SDS011;2097;51.104;7.150;2022-09-09T05:36:02;61.63;;;3.80;;
4166;SDS011;2097;51.104;7.150;2022-09-09T05:38:33;61.77;;;3.80;;
4166;SDS011;2097;51.104;7.150;2022-09-09T05:41:02;61.47;;;4.13;;
4166;SDS011;2097;51.104;7.150;2022-09-09T05:43:30;61.83;;;3.83;;
4166;SDS011;2097;51.104;7.150;2022-09-09T05:46:01;61.67;;;3.90;;
4166;SDS011;2097;51.104;7.150;2022-09-09T05:48:30;61.57;;;3.83;;
4166;SDS011;2097;51.104;7.150;2022-09-09T05:50:58;61.77;;;3.97;;
4166;SDS011;2097;51.104;7.150;2022-09-09T05:53:25;61.57;;;3.60;;
4166;SDS011;2097;51.104;7.150;2022-09-09T05:55:58;61.63;;;3.57;;
4166;SDS011;2097;51.104;7.150;2022-09-09T05:58:28;61.67;;;3.67;;
4166;SDS011;2097;51.104;7.150;2022-09-09T06:00:59;61.80;;;3.73;;
4166;SDS011;2097;51.104;7.150;2022-09-09T06:03:27;61.87;;;3.50;;
4166;SDS011;2097;51.104;7.150;2022-09-09T06:05:56;61.43;;;3.10;;
4166;SDS011;2097;51.104;7.150;2022-09-09T06:08:24;61.30;;;3.37;;
4166;SDS011;2097;51.104;7.150;2022-09-09T06:10:51;61.57;;;3.37;;
4166;SDS011;2097;51.104;7.150;2022-09-09T06:13:18;61.87;;;3.80;;
4166;SDS011;2097;51.104;7.150;2022-09-09T06:15:52;61.57;;;3.70;;
4166;SDS011;2097;51.104;7.150;2022-09-09T06:18:19;61.10;;;3.40;;
4166;SDS011;2097;51.104;7.150;2022-09-09T06:20:56;61.40;;;3.63;;
4166;SDS011;2097;51.104;7.150;2022-09-09T06:23:24;61.63;;;3.60;;
4166;SDS011;2097;51.104;7.150;2022-09-09T06:25:51;61.50;;;3.83;;
4166;SDS011;2097;51.104;7.150;2022-09-09T06:28:18;61.77;;;3.90;;
4166;SDS011;2097;51.104;7.150;2022-09-09T06:30:45;61.93;;;4.23;;
4166;SDS011;2097;51.104;7.150;2022-09-09T06:33:13;61.50;;;3.63;;
4166;SDS011;2097;51.104;7.150;2022-09-09T06:35:40;61.70;;;3.40;;
4166;SDS011;2097;51.104;7.150;2022-09-09T06:38:07;61.57;;;3.73;;
4166;SDS011;2097;51.104;7.150;2022-09-09T06:40:34;61.73;;;3.83;;
4166;SDS011;2097;51.104;7.150;2022-09-09T06:43:01;61.30;;;3.53;;
4166;SDS011;2097;51.104;7.150;2022-09-09T06:45:28;61.40;;;3.30;;
4166;SDS011;2097;51.104;7.150;2022-09-09T06:47:56;61.87;;;3.77;;
4166;SDS011;2097;51.104;7.150;2022-09-09T06:50:24;61.63;;;3.90;;
4166;SDS011;2097;51.104;7.150;2022-09-09T06:52:51;61.70;;;3.80;;
4166;SDS011;2097;51.104;7.150;2022-09-09T06:55:17;61.67;;;4.00;;
4166;SDS011;2097;51.104;7.150;2022-09-09T06:57:45;61.60;;;3.60;;
4166;SDS011;2097;51.104;7.150;2022-09-09T07:00:13;61.87;;;4.10;;
4166;SDS011;2097;51.104;7.150;2022-09-09T07:02:40;61.57;;;3.83;;
4166;SDS011;2097;51.104;7.150;2022-09-09T07:05:07;61.67;;;4.07;;
4166;SDS011;2097;51.104;7.150;2022-09-09T07:07:36;61.77;;;4.10;;
4166;SDS011;2097;51.104;7.150;2022-09-09T07:10:03;61.40;;;3.43;;
4166;SDS011;2097;51.104;7.150;2022-09-09T07:12:30;61.57;;;3.50;;
4166;SDS011;2097;51.104;7.150;2022-09-09T07:14:57;61.60;;;3.90;;
4166;SDS011;2097;51.104;7.150;2022-09-09T07:17:24;61.90;;;4.17;;
4166;SDS011;2097;51.104;7.150;2022-09-09T07:19:50;61.57;;;4.03;;
4166;SDS011;2097;51.104;7.150;2022-09-09T07:22:17;61.60;;;4.00;;
4166;SDS011;2097;51.104;7.150;2022-09-09T07:24:46;62.10;;;4.37;;
4166;SDS011;2097;51.104;7.150;2022-09-09T07:27:14;62.13;;;5.00;;
4166;SDS011;2097;51.104;7.150;2022-09-09T07:29:40;62.33;;;4.67;;
4166;SDS011;2097;51.104;7.150;2022-09-09T07:32:07;61.87;;;4.33;;
4166;SDS011;2097;51.104;7.150;2022-09-09T07:34:34;61.67;;;4.13;;
4166;SDS011;2097;51.104;7.150;2022-09-09T07:37:01;61.10;;;3.17;;
4166;SDS011;2097;51.104;7.150;2022-09-09T07:39:28;61.03;;;3.40;;
4166;SDS011;2097;51.104;7.150;2022-09-09T07:41:57;61.57;;;4.00;;
4166;SDS011;2097;51.104;7.150;2022-09-09T07:44:24;61.60;;;4.57;;
4166;SDS011;2097;51.104;7.150;2022-09-09T07:46:51;62.37;;;4.80;;
4166;SDS011;2097;51.104;7.150;2022-09-09T07:49:19;62.13;;;5.30;;
4166;SDS011;2097;51.104;7.150;2022-09-09T07:51:46;62.00;;;4.80;;
4166;SDS011;2097;51.104;7.150;2022-09-09T07:54:14;61.90;;;4.77;;
4166;SDS011;2097;51.104;7.150;2022-09-09T07:56:45;61.67;;;3.83;;
4166;SDS011;2097;51.104;7.150;2022-09-09T07:59:13;61.77;;;3.97;;
4166;SDS011;2097;51.104;7.150;2022-09-09T08:01:41;61.60;;;3.70;;
4166;SDS011;2097;51.104;7.150;2022-09-09T08:04:10;61.93;;;3.90;;
4166;SDS011;2097;51.104;7.150;2022-09-09T08:06:41;61.60;;;3.80;;
4166;SDS011;2097;51.104;7.150;2022-09-09T08:09:09;61.70;;;3.50;;
4166;SDS011;2097;51.104;7.150;2022-09-09T08:11:37;62.03;;;4.40;;
4166;SDS011;2097;51.104;7.150;2022-09-09T08:14:05;61.77;;;4.37;;
4166;SDS011;2097;51.104;7.150;2022-09-09T08:16:35;61.60;;;4.07;;
4166;SDS011;2097;51.104;7.150;2022-09-09T08:19:04;61.70;;;4.33;;
4166;SDS011;2097;51.104;7.150;2022-09-09T08:21:32;61.83;;;3.80;;
4166;SDS011;2097;51.104;7.150;2022-09-09T08:24:01;61.87;;;3.63;;
4166;SDS011;2097;51.104;7.150;2022-09-09T08:26:30;61.77;;;3.87;;
4166;SDS011;2097;51.104;7.150;2022-09-09T08:29:00;61.57;;;3.60;;
4166;SDS011;2097;51.104;7.150;2022-09-09T08:31:28;61.17;;;3.20;;
4166;SDS011;2097;51.104;7.150;2022-09-09T08:33:59;61.90;;;3.77;;
4166;SDS011;2097;51.104;7.150;2022-09-09T08:36:29;61.53;;;3.63;;
4166;SDS011;2097;51.104;7.150;2022-09-09T08:38:58;61.77;;;3.87;;
4166;SDS011;2097;51.104;7.150;2022-09-09T08:44:28;61.63;;;3.57;;
4166;SDS011;2097;51.104;7.150;2022-09-09T08:47:07;61.50;;;3.40;;
4166;SDS011;2097;51.104;7.150;2022-09-09T08:52:41;62.00;;;3.33;;
4166;SDS011;2097;51.104;7.150;2022-09-09T08:55:20;62.07;;;4.30;;
4166;SDS011;2097;51.104;7.150;2022-09-09T08:57:51;62.10;;;4.70;;
4166;SDS011;2097;51.104;7.150;2022-09-09T09:00:21;61.70;;;3.80;;
4166;SDS011;2097;51.104;7.150;2022-09-09T09:02:54;61.83;;;4.00;;
4166;SDS011;2097;51.104;7.150;2022-09-09T09:05:31;61.47;;;3.30;;
4166;SDS011;2097;51.104;7.150;2022-09-09T09:08:03;61.40;;;4.07;;
4166;SDS011;2097;51.104;7.150;2022-09-09T09:10:41;61.00;;;3.43;;
4166;SDS011;2097;51.104;7.150;2022-09-09T09:13:13;60.90;;;3.53;;
4166;SDS011;2097;51.104;7.150;2022-09-09T09:15:43;61.97;;;4.40;;
4166;SDS011;2097;51.104;7.150;2022-09-09T09:18:15;61.50;;;3.83;;
4166;SDS011;2097;51.104;7.150;2022-09-09T09:20:47;61.60;;;3.50;;
4166;SDS011;2097;51.104;7.150;2022-09-09T09:23:21;61.53;;;3.43;;
4166;SDS011;2097;51.104;7.150;2022-09-09T09:25:50;61.03;;;3.23;;
4166;SDS011;2097;51.104;7.150;2022-09-09T09:28:23;62.23;;;3.57;;
4166;SDS011;2097;51.104;7.150;2022-09-09T09:30:52;61.50;;;3.90;;
4166;SDS011;2097;51.104;7.150;2022-09-09T09:33:23;61.57;;;3.40;;
4166;SDS011;2097;51.104;7.150;2022-09-09T09:35:57;61.57;;;3.73;;
4166;SDS011;2097;51.104;7.150;2022-09-09T09:38:25;61.30;;;3.57;;
4166;SDS011;2097;51.104;7.150;2022-09-09T09:40:54;61.20;;;3.63;;
4166;SDS011;2097;51.104;7.150;2022-09-09T09:43:24;62.90;;;3.63;;
4166;SDS011;2097;51.104;7.150;2022-09-09T09:45:53;61.97;;;4.10;;
4166;SDS011;2097;51.104;7.150;2022-09-09T09:48:20;62.33;;;4.43;;
4166;SDS011;2097;51.104;7.150;2022-09-09T09:50:48;61.80;;;4.07;;
4166;SDS011;2097;51.104;7.150;2022-09-09T09:53:20;61.20;;;4.90;;
4166;SDS011;2097;51.104;7.150;2022-09-09T09:55:52;61.27;;;3.80;;
4166;SDS011;2097;51.104;7.150;2022-09-09T09:58:22;62.17;;;4.47;;
4166;SDS011;2097;51.104;7.150;2022-09-09T10:00:51;61.50;;;4.07;;
4166;SDS011;2097;51.104;7.150;2022-09-09T10:03:21;62.00;;;4.40;;
4166;SDS011;2097;51.104;7.150;2022-09-09T10:05:49;60.87;;;3.40;;
4166;SDS011;2097;51.104;7.150;2022-09-09T10:08:17;61.87;;;4.13;;
4166;SDS011;2097;51.104;7.150;2022-09-09T10:11:02;61.77;;;3.97;;
4166;SDS011;2097;51.104;7.150;2022-09-09T10:13:42;61.87;;;4.20;;
4166;SDS011;2097;51.104;7.150;2022-09-09T10:16:25;61.20;;;3.43;;
4166;SDS011;2097;51.104;7.150;2022-09-09T10:19:05;61.00;;;3.73;;
4166;SDS011;2097;51.104;7.150;2022-09-09T10:21:50;62.03;;;4.40;;
4166;SDS011;2097;51.104;7.150;2022-09-09T10:27:30;61.93;;;4.90;;
4166;SDS011;2097;51.104;7.150;2022-09-09T10:30:08;62.67;;;5.63;;
4166;SDS011;2097;51.104;7.150;2022-09-09T10:32:45;61.80;;;4.90;;
4166;SDS011;2097;51.104;7.150;2022-09-09T10:38:12;61.90;;;4.03;;
4166;SDS011;2097;51.104;7.150;2022-09-09T10:40:43;62.07;;;3.90;;
4166;SDS011;2097;51.104;7.150;2022-09-09T10:43:27;62.20;;;4.37;;
4166;SDS011;2097;51.104;7.150;2022-09-09T10:46:06;61.77;;;3.80;;
4166;SDS011;2097;51.104;7.150;2022-09-09T10:48:42;61.97;;;3.80;;
4166;SDS011;2097;51.104;7.150;2022-09-09T10:51:22;61.60;;;3.87;;
4166;SDS011;2097;51.104;7.150;2022-09-09T10:54:02;61.90;;;3.80;;
4166;SDS011;2097;51.104;7.150;2022-09-09T10:56:44;61.67;;;3.83;;
4166;SDS011;2097;51.104;7.150;2022-09-09T10:59:24;62.40;;;4.30;;
4166;SDS011;2097;51.104;7.150;2022-09-09T11:01:56;62.07;;;4.03;;
4166;SDS011;2097;51.104;7.150;2022-09-09T11:04:27;61.97;;;4.00;;
4166;SDS011;2097;51.104;7.150;2022-09-09T11:07:00;62.10;;;4.20;;
4166;SDS011;2097;51.104;7.150;2022-09-09T11:09:32;62.43;;;4.33;;
4166;SDS011;2097;51.104;7.150;2022-09-09T11:12:05;62.00;;;3.83;;
4166;SDS011;2097;51.104;7.150;2022-09-09T11:14:40;62.37;;;4.50;;
4166;SDS011;2097;51.104;7.150;2022-09-09T11:17:10;62.07;;;4.00;;
4166;SDS011;2097;51.104;7.150;2022-09-09T11:19:42;62.00;;;4.30;;
4166;SDS011;2097;51.104;7.150;2022-09-09T11:22:14;61.83;;;4.70;;
4166;SDS011;2097;51.104;7.150;2022-09-09T11:24:47;61.63;;;4.73;;
4166;SDS011;2097;51.104;7.150;2022-09-09T11:27:20;62.97;;;5.17;;
4166;SDS011;2097;51.104;7.150;2022-09-09T11:33:03;62.17;;;5.00;;
4166;SDS011;2097;51.104;7.150;2022-09-09T11:35:45;62.20;;;4.63;;
4166;SDS011;2097;51.104;7.150;2022-09-09T11:38:22;62.07;;;4.20;;
4166;SDS011;2097;51.104;7.150;2022-09-09T11:40:56;62.30;;;4.77;;
4166;SDS011;2097;51.104;7.150;2022-09-09T11:43:26;62.40;;;4.57;;
4166;SDS011;2097;51.104;7.150;2022-09-09T11:45:58;63.20;;;4.73;;
4166;SDS011;2097;51.104;7.150;2022-09-09T11:48:37;62.13;;;5.07;;
4166;SDS011;2097;51.104;7.150;2022-09-09T11:51:08;62.73;;;5.20;;
4166;SDS011;2097;51.104;7.150;2022-09-09T11:53:47;61.97;;;4.50;;
4166;SDS011;2097;51.104;7.150;2022-09-09T11:56:23;62.00;;;4.37;;
4166;SDS011;2097;51.104;7.150;2022-09-09T11:58:55;61.30;;;3.83;;
4166;SDS011;2097;51.104;7.150;2022-09-09T12:01:39;61.90;;;4.13;;
4166;SDS011;2097;51.104;7.150;2022-09-09T12:04:17;61.77;;;4.33;;
4166;SDS011;2097;51.104;7.150;2022-09-09T12:06:56;62.30;;;5.17;;
4166;SDS011;2097;51.104;7.150;2022-09-09T12:09:27;61.60;;;4.20;;
4166;SDS011;2097;51.104;7.150;2022-09-09T12:12:05;61.87;;;4.47;;
4166;SDS011;2097;51.104;7.150;2022-09-09T12:14:35;62.17;;;4.03;;
4166;SDS011;2097;51.104;7.150;2022-09-09T12:17:15;61.93;;;4.10;;
4166;SDS011;2097;51.104;7.150;2022-09-09T12:19:48;61.93;;;4.47;;
4166;SDS011;2097;51.104;7.150;2022-09-09T12:22:30;62.07;;;4.50;;
4166;SDS011;2097;51.104;7.150;2022-09-09T12:25:06;61.67;;;4.07;;
4166;SDS011;2097;51.104;7.150;2022-09-09T12:27:43;62.20;;;4.60;;
4166;SDS011;2097;51.104;7.150;2022-09-09T12:30:15;62.70;;;4.60;;
4166;SDS011;2097;51.104;7.150;2022-09-09T12:32:44;62.10;;;4.47;;
4166;SDS011;2097;51.104;7.150;2022-09-09T12:35:11;63.07;;;4.40;;
4166;SDS011;2097;51.104;7.150;2022-09-09T12:37:46;62.37;;;4.57;;
4166;SDS011;2097;51.104;7.150;2022-09-09T12:40:19;62.17;;;4.87;;
4166;SDS011;2097;51.104;7.150;2022-09-09T12:42:47;63.37;;;4.83;;
4166;SDS011;2097;51.104;7.150;2022-09-09T12:45:16;61.73;;;4.23;;
4166;SDS011;2097;51.104;7.150;2022-09-09T12:47:46;61.97;;;4.50;;
4166;SDS011;2097;51.104;7.150;2022-09-09T12:50:18;61.90;;;4.07;;
4166;SDS011;2097;51.104;7.150;2022-09-09T12:52:47;61.70;;;4.20;;
4166;SDS011;2097;51.104;7.150;2022-09-09T12:55:17;62.17;;;4.20;;
4166;SDS011;2097;51.104;7.150;2022-09-09T12:57:46;62.20;;;4.53;;
4166;SDS011;2097;51.104;7.150;2022-09-09T13:00:17;62.97;;;4.43;;
4166;SDS011;2097;51.104;7.150;2022-09-09T13:02:48;68.50;;;8.50;;
4166;SDS011;2097;51.104;7.150;2022-09-09T13:05:18;67.90;;;7.40;;
4166;SDS011;2097;51.104;7.150;2022-09-09T13:07:46;62.43;;;4.83;;
4166;SDS011;2097;51.104;7.150;2022-09-09T13:10:13;62.30;;;4.87;;
4166;SDS011;2097;51.104;7.150;2022-09-09T13:12:46;62.10;;;4.77;;
4166;SDS011;2097;51.104;7.150;2022-09-09T13:15:16;62.37;;;4.80;;
4166;SDS011;2097;51.104;7.150;2022-09-09T13:17:55;62.00;;;4.63;;
4166;SDS011;2097;51.104;7.150;2022-09-09T13:20:23;61.83;;;4.33;;
4166;SDS011;2097;51.104;7.150;2022-09-09T13:22:51;61.97;;;4.10;;
4166;SDS011;2097;51.104;7.150;2022-09-09T13:25:21;61.40;;;3.57;;
4166;SDS011;2097;51.104;7.150;2022-09-09T13:27:51;62.20;;;4.47;;
4166;SDS011;2097;51.104;7.150;2022-09-09T13:30:20;61.60;;;4.33;;
4166;SDS011;2097;51.104;7.150;2022-09-09T13:33:00;61.60;;;3.90;;
4166;SDS011;2097;51.104;7.150;2022-09-09T13:35:28;61.83;;;3.87;;
4166;SDS011;2097;51.104;7.150;2022-09-09T13:37:56;62.13;;;4.50;;
4166;SDS011;2097;51.104;7.150;2022-09-09T13:40:23;62.10;;;4.37;;
4166;SDS011;2097;51.104;7.150;2022-09-09T13:42:51;61.40;;;4.20;;
4166;SDS011;2097;51.104;7.150;2022-09-09T13:45:22;61.60;;;3.73;;
4166;SDS011;2097;51.104;7.150;2022-09-09T13:47:51;61.80;;;3.97;;
4166;SDS011;2097;51.104;7.150;2022-09-09T13:50:22;61.70;;;3.87;;
4166;SDS011;2097;51.104;7.150;2022-09-09T13:52:51;61.90;;;3.93;;
4166;SDS011;2097;51.104;7.150;2022-09-09T13:55:19;61.47;;;3.43;;
4166;SDS011;2097;51.104;7.150;2022-09-09T13:57:51;61.73;;;3.40;;
4166;SDS011;2097;51.104;7.150;2022-09-09T14:00:18;61.77;;;3.80;;
4166;SDS011;2097;51.104;7.150;2022-09-09T14:02:45;60.57;;;3.70;;
4166;SDS011;2097;51.104;7.150;2022-09-09T14:05:12;61.37;;;3.37;;
4166;SDS011;2097;51.104;7.150;2022-09-09T14:07:41;61.67;;;3.87;;
4166;SDS011;2097;51.104;7.150;2022-09-09T14:10:09;61.57;;;3.57;;
4166;SDS011;2097;51.104;7.150;2022-09-09T14:12:37;61.60;;;3.53;;
4166;SDS011;2097;51.104;7.150;2022-09-09T14:15:04;61.50;;;3.50;;
4166;SDS011;2097;51.104;7.150;2022-09-09T14:17:32;61.40;;;3.63;;
4166;SDS011;2097;51.104;7.150;2022-09-09T14:20:01;61.60;;;3.80;;
4166;SDS011;2097;51.104;7.150;2022-09-09T14:22:30;61.33;;;3.40;;
4166;SDS011;2097;51.104;7.150;2022-09-09T14:24:58;61.27;;;3.47;;
4166;SDS011;2097;51.104;7.150;2022-09-09T14:27:25;60.80;;;4.40;;
4166;SDS011;2097;51.104;7.150;2022-09-09T14:29:52;61.37;;;4.07;;
4166;SDS011;2097;51.104;7.150;2022-09-09T14:32:19;61.57;;;3.67;;
4166;SDS011;2097;51.104;7.150;2022-09-09T14:34:47;61.33;;;3.50;;
4166;SDS011;2097;51.104;7.150;2022-09-09T14:37:15;61.70;;;3.07;;
4166;SDS011;2097;51.104;7.150;2022-09-09T14:39:42;61.60;;;4.10;;
4166;SDS011;2097;51.104;7.150;2022-09-09T14:42:10;60.90;;;4.40;;
4166;SDS011;2097;51.104;7.150;2022-09-09T14:44:37;61.83;;;3.37;;
4166;SDS011;2097;51.104;7.150;2022-09-09T14:47:04;61.77;;;3.30;;
4166;SDS011;2097;51.104;7.150;2022-09-09T14:49:33;61.70;;;3.20;;
4166;SDS011;2097;51.104;7.150;2022-09-09T14:51:59;61.57;;;3.30;;
4166;SDS011;2097;51.104;7.150;2022-09-09T14:54:26;61.60;;;3.63;;
4166;SDS011;2097;51.104;7.150;2022-09-09T14:56:53;62.00;;;4.20;;
4166;SDS011;2097;51.104;7.150;2022-09-09T14:59:22;61.93;;;3.70;;
4166;SDS011;2097;51.104;7.150;2022-09-09T15:01:49;61.77;;;3.53;;
4166;SDS011;2097;51.104;7.150;2022-09-09T15:04:16;62.70;;;3.87;;
4166;SDS011;2097;51.104;7.150;2022-09-09T15:06:45;62.43;;;3.87;;
4166;SDS011;2097;51.104;7.150;2022-09-09T15:09:13;61.00;;;3.27;;
4166;SDS011;2097;51.104;7.150;2022-09-09T15:11:40;61.97;;;4.50;;
4166;SDS011;2097;51.104;7.150;2022-09-09T15:14:07;62.40;;;4.30;;
4166;SDS011;2097;51.104;7.150;2022-09-09T15:16:37;61.73;;;3.90;;
4166;SDS011;2097;51.104;7.150;2022-09-09T15:19:04;61.90;;;4.03;;
4166;SDS011;2097;51.104;7.150;2022-09-09T15:21:32;61.73;;;4.30;;
4166;SDS011;2097;51.104;7.150;2022-09-09T15:24:00;61.67;;;4.60;;
4166;SDS011;2097;51.104;7.150;2022-09-09T15:26:27;61.77;;;4.10;;
4166;SDS011;2097;51.104;7.150;2022-09-09T15:28:55;61.77;;;4.53;;
4166;SDS011;2097;51.104;7.150;2022-09-09T15:31:24;61.57;;;3.90;;
4166;SDS011;2097;51.104;7.150;2022-09-09T15:33:55;61.93;;;4.30;;
4166;SDS011;2097;51.104;7.150;2022-09-09T15:36:26;61.80;;;4.27;;
4166;SDS011;2097;51.104;7.150;2022-09-09T15:38:55;61.97;;;4.27;;
4166;SDS011;2097;51.104;7.150;2022-09-09T15:41:22;61.50;;;3.90;;